Clifford A. Barnes — WRN5495 — position and weather

sailwx.info

Track history (hours):
 
Tides and Currents Weather Stations Pressure Air Temp Water Temp Dewpoint Dewpoint Depression Visibility Wind Speed Wind Dir Waves Ship Positions

Oceanographic research ship Clifford A. Barnes (USA)

Ship's website: http://www.ocean.washington.edu/vessels/CAB/cab.html

Detailed information on ship capabilities available from University of Delaware's Ocean Information Center.

Owner: UNIVERSITY OF WASHINGTON, SEATTLE, WA. More information available from US FCC via Universal Licensing System.

Last reported at 2018-Jan-29 14:52 UTC. Time now 2018-Dec-12 16:07 UTC.
Position N 47°39' W 122°19'.
Warning: this ship's position is months out of date.

Length 22 m.

Type: Other ship. MMSI: 366918910.

Date/timePositionNaut miles runAvg speedWind from/ knotsBaromVisibWave heightAir tempDewpointWater temp
2018-Jan-29 14:52N 47°39' W 122°19'0 0.0
2018-Jan-29 14:25N 47°39' W 122°19'0 0.0
2018-Jan-29 13:58N 47°39' W 122°19'0 0.0
2018-Jan-29 13:28N 47°39' W 122°19'0 0.0
2018-Jan-29 12:58N 47°39' W 122°19'0 0.0
2018-Jan-29 12:28N 47°39' W 122°19'0 0.0
2018-Jan-29 11:58N 47°39' W 122°19'0 0.0
2018-Jan-29 11:28N 47°39' W 122°19'0 0.0
2018-Jan-29 10:58N 47°39' W 122°19'0 0.0
2018-Jan-29 10:28N 47°39' W 122°19'0 0.0
2018-Jan-29 09:58N 47°39' W 122°19'0 0.0
2018-Jan-29 09:28N 47°39' W 122°19'0 0.0
2018-Jan-29 08:55N 47°39' W 122°19'0 0.0
2018-Jan-29 08:25N 47°39' W 122°19'0 0.0
2018-Jan-29 07:58N 47°39' W 122°19'0 0.0
2018-Jan-29 07:31N 47°39' W 122°19'0 0.0
2018-Jan-29 07:00N 47°39' W 122°19'0 0.0
2018-Jan-29 06:30N 47°39' W 122°19'0 0.0
2018-Jan-29 05:57N 47°39' W 122°19'0 0.0
2018-Jan-29 05:30N 47°39' W 122°19'0 0.0
2018-Jan-29 04:57N 47°39' W 122°19'0 0.0
2018-Jan-29 04:30N 47°39' W 122°19'0 0.0
2018-Jan-29 04:00N 47°39' W 122°19'0 0.0
2018-Jan-29 03:27N 47°39' W 122°19'0 0.0
2018-Jan-29 03:00N 47°39' W 122°19'2 3.0
2018-Jan-29 02:30N 47°39' W 122°21'2 4.5
2018-Jan-29 02:00N 47°40' W 122°24'3 5.6
2018-Jan-29 01:30N 47°43' W 122°25'4 7.6
2018-Jan-29 01:00N 47°46' W 122°24'4 7.5
2018-Jan-29 00:30N 47°50' W 122°24'5 8.6
2018-Jan-28 23:58N 47°54' W 122°21'4 9.1
2018-Jan-28 23:30N 47°58' W 122°17'1 1.6
2018-Jan-28 23:00N 47°58' W 122°16'3 6.4
2018-Jan-28 22:28N 48°02' W 122°17'3 5.9
2018-Jan-28 21:59N 48°04' W 122°20'0 0.8
2018-Jan-28 21:30N 48°04' W 122°20'1 1.1
2018-Jan-28 20:55N 48°04' W 122°20'3 7.1
2018-Jan-28 20:30N 48°07' W 122°23'3 2.6
2018-Jan-28 19:23N 48°10' W 122°25'5 9.1
2018-Jan-28 18:48N 48°05' W 122°21'3 9.2
2018-Jan-28 18:29N 48°02' W 122°19'4 8.3
2018-Jan-28 18:00N 47°59' W 122°18'3 6.4
2018-Jan-28 17:30N 47°56' W 122°19'1 2.0
2018-Jan-28 17:00N 47°57' W 122°19'4 7.6
2018-Jan-28 16:29N 47°59' W 122°14'1 0.6
2018-Jan-28 14:59N 47°60' W 122°13'0 0.0
2018-Jan-28 00:20N 47°60' W 122°13'2 5.2
2018-Jan-27 23:59N 47°58' W 122°15'1 1.1
2018-Jan-27 23:29N 47°58' W 122°16'4 2.6
2018-Jan-27 22:08N 48°02' W 122°17'0 0.7
2018-Jan-27 22:01N 48°02' W 122°17'0 0.2
2018-Jan-27 21:30N 48°02' W 122°17'4 8.5
2018-Jan-27 21:00N 47°58' W 122°18'5 9.6
2018-Jan-27 20:30N 47°54' W 122°22'5 9.4
2018-Jan-27 20:00N 47°49' W 122°24'5 9.7
2018-Jan-27 19:30N 47°44' W 122°25'5 9.1
2018-Jan-27 19:00N 47°40' W 122°27'4 8.7
2018-Jan-27 18:30N 47°36' W 122°28'3 5.3
2018-Jan-27 18:00N 47°35' W 122°32'0 0.3
2018-Jan-27 17:29N 47°35' W 122°32'0 0.1
2018-Jan-27 17:01N 47°35' W 122°32'1 1.7
2018-Jan-27 16:30N 47°34' W 122°32'3 6.4
2018-Jan-27 16:00N 47°37' W 122°29'4 7.0
2018-Jan-27 15:30N 47°40' W 122°27'2 4.5
2018-Jan-27 15:00N 47°40' W 122°24'3 5.9
2018-Jan-27 14:30N 47°39' W 122°20'1 1.2
2018-Jan-27 13:59N 47°39' W 122°19'0 0.0
2018-Jan-27 13:29N 47°39' W 122°19'0 0.0
2018-Jan-27 12:56N 47°39' W 122°19'0 0.0
2018-Jan-27 12:29N 47°39' W 122°19'0 0.0
2018-Jan-27 11:56N 47°39' W 122°19'0 0.0
2018-Jan-27 11:29N 47°39' W 122°19'0 0.0
2018-Jan-27 10:59N 47°39' W 122°19'0 0.0
2018-Jan-27 10:29N 47°39' W 122°19'0 0.0
2018-Jan-27 09:59N 47°39' W 122°19'0 0.0
2018-Jan-27 09:29N 47°39' W 122°19'0 0.0
2018-Jan-27 08:56N 47°39' W 122°19'0 0.0
2018-Jan-27 08:29N 47°39' W 122°19'0 0.0
2018-Jan-27 07:59N 47°39' W 122°19'0 0.0
2018-Jan-27 07:29N 47°39' W 122°19'0 0.0
2018-Jan-27 06:59N 47°39' W 122°19'0 0.0
2018-Jan-27 06:29N 47°39' W 122°19'0 0.0
2018-Jan-27 05:59N 47°39' W 122°19'0 0.0
2018-Jan-27 05:23N 47°39' W 122°19'0 0.0
2018-Jan-27 04:59N 47°39' W 122°19'0 0.0
2018-Jan-27 04:29N 47°39' W 122°19'0 0.0
2018-Jan-27 03:59N 47°39' W 122°19'0 0.0
2018-Jan-27 03:29N 47°39' W 122°19'0 0.0
2018-Jan-27 02:59N 47°39' W 122°19'0 0.0
2018-Jan-27 02:26N 47°39' W 122°19'0 0.0
2018-Jan-27 01:59N 47°39' W 122°19'0 0.0
2018-Jan-27 01:29N 47°39' W 122°19'0 0.0
2018-Jan-27 00:59N 47°39' W 122°19'0 0.0
2018-Jan-27 00:29N 47°39' W 122°19'0 0.0
2018-Jan-26 23:56N 47°39' W 122°19'0 0.0
2018-Jan-26 23:26N 47°39' W 122°19'0 0.0
2018-Jan-26 22:59N 47°39' W 122°19'0 0.0
2018-Jan-26 22:30N 47°39' W 122°19'0 0.0
2018-Jan-26 21:57N 47°39' W 122°19'0 0.0
2018-Jan-26 21:30N 47°39' W 122°19'0 0.0
2018-Jan-26 21:00N 47°39' W 122°19'0 0.0
2018-Jan-26 20:27N 47°39' W 122°19'  
Track history (hours):
 
Tides and Currents Weather Stations Pressure Air Temp Water Temp Dewpoint Dewpoint Depression Visibility Wind Speed Wind Dir Waves Ship Positions

Oceanographic research ship Clifford A. Barnes (USA)

Ship's website: http://www.ocean.washington.edu/vessels/CAB/cab.html

Detailed information on ship capabilities available from University of Delaware's Ocean Information Center.

Owner: UNIVERSITY OF WASHINGTON, SEATTLE, WA. More information available from US FCC via Universal Licensing System.

Last reported at 2018-Jan-29 14:52 UTC. Time now 2018-Dec-12 16:07 UTC.
Position N 47°39' W 122°19'.
Warning: this ship's position is months out of date.

Length 22 m.

Type: Other ship. MMSI: 366918910.

Date/timePositionNaut miles runAvg speedWind from/ knotsBaromVisibWave heightAir tempDewpointWater temp
2018-Jan-29 14:52N 47°39' W 122°19'0 0.0
2018-Jan-29 14:25N 47°39' W 122°19'0 0.0
2018-Jan-29 13:58N 47°39' W 122°19'0 0.0
2018-Jan-29 13:28N 47°39' W 122°19'0 0.0
2018-Jan-29 12:58N 47°39' W 122°19'0 0.0
2018-Jan-29 12:28N 47°39' W 122°19'0 0.0
2018-Jan-29 11:58N 47°39' W 122°19'0 0.0
2018-Jan-29 11:28N 47°39' W 122°19'0 0.0
2018-Jan-29 10:58N 47°39' W 122°19'0 0.0
2018-Jan-29 10:28N 47°39' W 122°19'0 0.0
2018-Jan-29 09:58N 47°39' W 122°19'0 0.0
2018-Jan-29 09:28N 47°39' W 122°19'0 0.0
2018-Jan-29 08:55N 47°39' W 122°19'0 0.0
2018-Jan-29 08:25N 47°39' W 122°19'0 0.0
2018-Jan-29 07:58N 47°39' W 122°19'0 0.0
2018-Jan-29 07:31N 47°39' W 122°19'0 0.0
2018-Jan-29 07:00N 47°39' W 122°19'0 0.0
2018-Jan-29 06:30N 47°39' W 122°19'0 0.0
2018-Jan-29 05:57N 47°39' W 122°19'0 0.0
2018-Jan-29 05:30N 47°39' W 122°19'0 0.0
2018-Jan-29 04:57N 47°39' W 122°19'0 0.0
2018-Jan-29 04:30N 47°39' W 122°19'0 0.0
2018-Jan-29 04:00N 47°39' W 122°19'0 0.0
2018-Jan-29 03:27N 47°39' W 122°19'0 0.0
2018-Jan-29 03:00N 47°39' W 122°19'2 3.0
2018-Jan-29 02:30N 47°39' W 122°21'2 4.5
2018-Jan-29 02:00N 47°40' W 122°24'3 5.6
2018-Jan-29 01:30N 47°43' W 122°25'4 7.6
2018-Jan-29 01:00N 47°46' W 122°24'4 7.5
2018-Jan-29 00:30N 47°50' W 122°24'5 8.6
2018-Jan-28 23:58N 47°54' W 122°21'4 9.1
2018-Jan-28 23:30N 47°58' W 122°17'1 1.6
2018-Jan-28 23:00N 47°58' W 122°16'3 6.4
2018-Jan-28 22:28N 48°02' W 122°17'3 5.9
2018-Jan-28 21:59N 48°04' W 122°20'0 0.8
2018-Jan-28 21:30N 48°04' W 122°20'1 1.1
2018-Jan-28 20:55N 48°04' W 122°20'3 7.1
2018-Jan-28 20:30N 48°07' W 122°23'3 2.6
2018-Jan-28 19:23N 48°10' W 122°25'5 9.1
2018-Jan-28 18:48N 48°05' W 122°21'3 9.2
2018-Jan-28 18:29N 48°02' W 122°19'4 8.3
2018-Jan-28 18:00N 47°59' W 122°18'3 6.4
2018-Jan-28 17:30N 47°56' W 122°19'1 2.0
2018-Jan-28 17:00N 47°57' W 122°19'4 7.6
2018-Jan-28 16:29N 47°59' W 122°14'1 0.6
2018-Jan-28 14:59N 47°60' W 122°13'0 0.0
2018-Jan-28 00:20N 47°60' W 122°13'2 5.2
2018-Jan-27 23:59N 47°58' W 122°15'1 1.1
2018-Jan-27 23:29N 47°58' W 122°16'4 2.6
2018-Jan-27 22:08N 48°02' W 122°17'0 0.7
2018-Jan-27 22:01N 48°02' W 122°17'0 0.2
2018-Jan-27 21:30N 48°02' W 122°17'4 8.5
2018-Jan-27 21:00N 47°58' W 122°18'5 9.6
2018-Jan-27 20:30N 47°54' W 122°22'5 9.4
2018-Jan-27 20:00N 47°49' W 122°24'5 9.7
2018-Jan-27 19:30N 47°44' W 122°25'5 9.1
2018-Jan-27 19:00N 47°40' W 122°27'4 8.7
2018-Jan-27 18:30N 47°36' W 122°28'3 5.3
2018-Jan-27 18:00N 47°35' W 122°32'0 0.3
2018-Jan-27 17:29N 47°35' W 122°32'0 0.1
2018-Jan-27 17:01N 47°35' W 122°32'1 1.7
2018-Jan-27 16:30N 47°34' W 122°32'3 6.4
2018-Jan-27 16:00N 47°37' W 122°29'4 7.0
2018-Jan-27 15:30N 47°40' W 122°27'2 4.5
2018-Jan-27 15:00N 47°40' W 122°24'3 5.9
2018-Jan-27 14:30N 47°39' W 122°20'1 1.2
2018-Jan-27 13:59N 47°39' W 122°19'0 0.0
2018-Jan-27 13:29N 47°39' W 122°19'0 0.0
2018-Jan-27 12:56N 47°39' W 122°19'0 0.0
2018-Jan-27 12:29N 47°39' W 122°19'0 0.0
2018-Jan-27 11:56N 47°39' W 122°19'0 0.0
2018-Jan-27 11:29N 47°39' W 122°19'0 0.0
2018-Jan-27 10:59N 47°39' W 122°19'0 0.0
2018-Jan-27 10:29N 47°39' W 122°19'0 0.0
2018-Jan-27 09:59N 47°39' W 122°19'0 0.0
2018-Jan-27 09:29N 47°39' W 122°19'0 0.0
2018-Jan-27 08:56N 47°39' W 122°19'0 0.0
2018-Jan-27 08:29N 47°39' W 122°19'0 0.0
2018-Jan-27 07:59N 47°39' W 122°19'0 0.0
2018-Jan-27 07:29N 47°39' W 122°19'0 0.0
2018-Jan-27 06:59N 47°39' W 122°19'0 0.0
2018-Jan-27 06:29N 47°39' W 122°19'0 0.0
2018-Jan-27 05:59N 47°39' W 122°19'0 0.0
2018-Jan-27 05:23N 47°39' W 122°19'0 0.0
2018-Jan-27 04:59N 47°39' W 122°19'0 0.0
2018-Jan-27 04:29N 47°39' W 122°19'0 0.0
2018-Jan-27 03:59N 47°39' W 122°19'0 0.0
2018-Jan-27 03:29N 47°39' W 122°19'0 0.0
2018-Jan-27 02:59N 47°39' W 122°19'0 0.0
2018-Jan-27 02:26N 47°39' W 122°19'0 0.0
2018-Jan-27 01:59N 47°39' W 122°19'0 0.0
2018-Jan-27 01:29N 47°39' W 122°19'0 0.0
2018-Jan-27 00:59N 47°39' W 122°19'0 0.0
2018-Jan-27 00:29N 47°39' W 122°19'0 0.0
2018-Jan-26 23:56N 47°39' W 122°19'0 0.0
2018-Jan-26 23:26N 47°39' W 122°19'0 0.0
2018-Jan-26 22:59N 47°39' W 122°19'0 0.0
2018-Jan-26 22:30N 47°39' W 122°19'0 0.0
2018-Jan-26 21:57N 47°39' W 122°19'0 0.0
2018-Jan-26 21:30N 47°39' W 122°19'0 0.0
2018-Jan-26 21:00N 47°39' W 122°19'0 0.0
2018-Jan-26 20:27N 47°39' W 122°19'  

Dump ship's entire track history